Time;durP1;ratioP1;P1;durP2;ratioP2;P2;SDS_P1;SDS_P2;PMS_P1;PMS_P2;Temp;Humidity;BMP_temperature;BMP_pressure;BME280_temperature;BME280_humidity;BME280_pressure;Samples;Min_cycle;Max_cycle;Signal;HPM_P1;HPM_P2
2022/12/22 03:25:53;;;;;;;;;6.67;3.33;;;;;12.54;76.35;100060.19;5057647;28;45253;-71
2022/12/22 03:28:26;;;;;;;;;6.67;3.33;;;;;13.12;76.59;100173.63;5057009;28;46894;-71
2022/12/22 03:31:04;;;;;;;;;2.00;1.00;;;;;11.24;76.88;99861.66;5057442;28;45360;-71
2022/12/22 03:33:30;;;;;;;;;4.00;1.67;;;;;13.29;76.92;100204.63;5057296;28;45187;-71
2022/12/22 03:35:56;;;;;;;;;3.00;3.00;;;;;13.26;77.07;100221.00;5057321;28;45244;-70
2022/12/22 03:38:22;;;;;;;;;2.67;2.00;;;;;13.26;76.84;100229.00;5057139;28;46623;-69
2022/12/22 03:40:47;;;;;;;;;5.33;5.00;;;;;13.26;76.56;100196.97;5056985;28;45479;-71
2022/12/22 03:49:08;;;;;;;;;3.00;1.33;;;;;13.29;75.61;100229.47;5057094;28;45691;-71
2022/12/22 03:51:29;;;;;;;;;5.50;4.00;;;;;13.25;75.76;100200.66;5056632;28;45510;-72
2022/12/22 03:53:54;;;;;;;;;5.00;2.67;;;;;13.21;75.02;100215.31;5056833;28;45329;-71
2022/12/22 03:56:20;;;;;;;;;5.00;3.00;;;;;13.15;75.17;100200.81;5039119;28;45550;-73
2022/12/22 03:58:45;;;;;;;;;3.00;2.33;;;;;13.33;74.58;100227.28;5056663;28;50292;-70
2022/12/22 04:01:10;;;;;;;;;1.50;0.50;;;;;12.91;74.79;100161.72;5038658;28;45483;-70
2022/12/22 04:03:35;;;;;;;;;2.67;1.67;;;;;13.24;74.96;100223.00;5038824;28;59396;-71
2022/12/22 04:06:01;;;;;;;;;6.00;3.00;;;;;13.12;76.01;100205.66;5060693;28;45555;-71
2022/12/22 04:08:26;;;;;;;;;2.75;2.25;;;;;13.09;75.49;100205.00;5042008;28;47610;-72
2022/12/22 04:13:35;;;;;;;;;2.00;2.00;;;;;12.83;75.78;100199.13;5060152;28;45462;-71
2022/12/22 04:16:01;;;;;;;;;5.33;1.67;;;;;12.84;76.03;100211.44;5060292;28;45404;-69
2022/12/22 04:18:26;;;;;;;;;4.67;2.33;;;;;12.98;75.66;100223.22;5060166;28;45889;-71
2022/12/22 04:20:51;;;;;;;;;8.33;1.67;;;;;12.69;75.84;100199.81;5060526;28;45424;-71
2022/12/22 04:23:17;;;;;;;;;3.00;2.00;;;;;13.00;76.23;100242.56;5060608;28;45503;-70
2022/12/22 04:25:42;;;;;;;;;2.00;2.00;;;;;12.96;75.72;100258.09;5060313;28;45476;-71
2022/12/22 04:28:07;;;;;;;;;5.25;2.00;;;;;12.95;75.34;100245.75;5060027;28;45272;-71
2022/12/22 04:30:33;;;;;;;;;2.75;1.75;;;;;12.90;75.22;100244.59;5060109;28;45556;-70
2022/12/22 04:32:58;;;;;;;;;4.67;2.67;;;;;13.13;75.15;100300.75;5060218;28;45147;-70
2022/12/22 04:35:23;;;;;;;;;3.50;3.00;;;;;13.20;74.99;100307.91;5059773;28;57403;-70
2022/12/22 04:37:49;;;;;;;;;1.00;0.50;;;;;13.23;74.63;100298.75;5041853;28;48488;-71
2022/12/22 04:40:14;;;;;;;;;6.67;2.33;;;;;13.25;74.17;100310.09;5059691;28;45254;-70
2022/12/22 04:42:40;;;;;;;;;1.50;1.50;;;;;11.88;74.29;100081.72;5060061;28;45356;-70
2022/12/22 04:45:06;;;;;;;;;1.00;1.00;;;;;12.81;73.99;100241.13;5059966;28;45578;-72
2022/12/22 04:47:31;;;;;;;;;2.00;1.00;;;;;13.09;74.26;100317.09;5059742;28;46524;-71
2022/12/22 04:49:56;;;;;;;;;3.00;2.33;;;;;13.22;74.13;100343.31;5059499;28;46193;-72
2022/12/22 04:52:22;;;;;;;;;2.67;0.33;;;;;12.46;73.98;100216.53;5041714;28;45336;-71
2022/12/22 04:54:47;;;;;;;;;3.33;1.33;;;;;11.95;73.32;100132.47;5059825;28;45518;-69
2022/12/22 04:57:12;;;;;;;;;4.33;1.00;;;;;12.88;74.25;100291.97;5059445;28;46027;-75
2022/12/22 04:59:38;;;;;;;;;1.50;1.00;;;;;13.21;73.87;100352.28;5060088;28;45480;-70
2022/12/22 05:02:03;;;;;;;;;0.67;0.67;;;;;12.95;73.22;100298.28;5059596;28;45436;-71
2022/12/22 05:04:28;;;;;;;;;0.25;0.25;;;;;13.25;73.37;100350.13;5060015;28;45322;-71
2022/12/22 05:06:53;;;;;;;;;0.33;0.33;;;;;13.10;72.65;100353.47;5060269;28;46243;-71
2022/12/22 05:09:19;;;;;;;;;1.33;0.67;;;;;13.20;72.67;100360.47;5059144;28;53753;-71
2022/12/22 05:11:44;;;;;;;;;2.33;0.00;;;;;13.28;72.51;100385.34;5059452;28;45529;-71
2022/12/22 05:14:09;;;;;;;;;1.33;0.33;;;;;13.38;72.82;100393.13;5058811;28;45470;-70
2022/12/22 05:16:35;;;;;;;;;1.00;0.67;;;;;13.15;72.71;100368.13;5039835;28;46832;-70
2022/12/22 05:19:00;;;;;;;;;1.33;0.00;;;;;13.38;72.51;100422.50;5058833;28;52820;-70
2022/12/22 05:21:25;;;;;;;;;0.00;0.00;;;;;13.22;72.39;100395.88;5059055;28;45444;-70
2022/12/22 05:23:51;;;;;;;;;0.67;0.00;;;;;12.66;72.71;100313.00;5041280;28;45462;-70
2022/12/22 05:26:17;;;;;;;;;0.33;0.00;;;;;12.91;72.22;100356.50;5041044;28;54245;-71
2022/12/22 05:28:45;;;;;;;;;0.33;0.33;;;;;12.95;72.64;100365.81;5040613;28;45248;-70
2022/12/22 05:31:20;;;;;;;;;0.00;0.00;;;;;13.12;72.29;100395.16;5059183;28;45256;-71
2022/12/22 05:33:46;;;;;;;;;0.00;0.00;;;;;13.08;72.21;100400.84;5059334;28;45590;-70
2022/12/22 05:36:11;;;;;;;;;0.33;0.33;;;;;13.24;71.82;100441.91;5058847;28;46045;-71
2022/12/22 05:38:37;;;;;;;;;0.00;0.00;;;;;13.09;72.02;100418.53;5058806;28;45292;-72
2022/12/22 05:41:02;;;;;;;;;0.33;0.00;;;;;13.20;71.94;100446.72;5059174;28;45473;-71
2022/12/22 05:43:30;;;;;;;;;0.00;0.00;;;;;13.25;72.31;100455.09;5059149;28;45605;-72
2022/12/22 05:45:57;;;;;;;;;2.67;0.00;;;;;12.96;71.91;100409.34;5058747;28;46112;-71
2022/12/22 05:48:22;;;;;;;;;0.00;0.00;;;;;12.98;72.10;100426.84;5058760;28;45415;-71
2022/12/22 05:50:48;;;;;;;;;0.00;0.00;;;;;13.26;72.66;100466.59;5059078;28;45320;-72
2022/12/22 05:53:13;;;;;;;;;0.00;0.00;;;;;13.18;72.49;100447.91;5058869;28;45577;-72
2022/12/22 05:55:38;;;;;;;;;0.33;0.00;;;;;13.19;72.34;100447.72;5057137;28;47184;-70
2022/12/22 05:58:04;;;;;;;;;0.00;0.00;;;;;13.14;72.66;100451.88;5058398;28;45321;-70
2022/12/22 06:00:31;;;;;;;;;0.67;0.00;;;;;13.26;73.33;100471.94;5040213;28;45266;-70
2022/12/22 06:02:57;;;;;;;;;0.67;0.00;;;;;12.33;73.70;100312.16;5058440;28;45345;-70
2022/12/22 06:05:23;;;;;;;;;0.00;0.00;;;;;12.84;74.55;100408.03;5058025;28;45545;-70
2022/12/22 06:07:49;;;;;;;;;0.00;0.00;;;;;13.12;75.66;100457.38;5058341;28;45478;-71
2022/12/22 06:10:15;;;;;;;;;0.00;0.00;;;;;13.34;76.20;100495.94;5058474;28;45368;-71
2022/12/22 06:12:42;;;;;;;;;0.00;0.00;;;;;13.30;76.95;100499.97;5058332;28;45402;-70
2022/12/22 06:15:10;;;;;;;;;0.00;0.00;;;;;13.30;77.28;100499.97;5058018;28;46427;-70
2022/12/22 06:17:36;;;;;;;;;0.25;0.25;;;;;13.16;77.58;100481.91;5040188;28;45426;-71
2022/12/22 06:20:01;;;;;;;;;0.00;0.00;;;;;13.27;77.68;100508.31;5058315;28;45288;-71
2022/12/22 06:22:26;;;;;;;;;0.00;0.00;;;;;13.22;78.11;100502.66;5058520;28;45396;-71
2022/12/22 06:24:52;;;;;;;;;0.00;0.00;;;;;12.58;78.27;100392.16;5057974;28;54923;-71
2022/12/22 06:27:17;;;;;;;;;0.25;0.00;;;;;13.07;78.22;100484.59;5058028;28;45515;-71
2022/12/22 06:29:42;;;;;;;;;2.00;0.00;;;;;13.25;78.62;100496.97;5040001;28;45592;-72
2022/12/22 06:32:08;;;;;;;;;0.00;0.00;;;;;13.21;78.45;100501.78;5058375;28;45602;-71
2022/12/22 06:34:33;;;;;;;;;0.00;0.00;;;;;13.16;78.43;100497.91;5039865;28;49628;-70
2022/12/22 06:36:58;;;;;;;;;1.00;0.00;;;;;13.36;78.98;100526.81;5057803;28;45400;-70
2022/12/22 06:39:24;;;;;;;;;2.00;0.00;;;;;13.27;78.85;100524.34;5058050;28;45474;-69
2022/12/22 06:44:33;;;;;;;;;3.33;2.33;;;;;12.89;78.59;100486.56;5057652;28;45349;-70
2022/12/22 06:46:59;;;;;;;;;3.67;2.33;;;;;12.81;78.25;100467.88;5039250;28;45495;-70
2022/12/22 06:49:24;;;;;;;;;9.33;5.33;;;;;13.26;78.77;100562.72;5057864;28;45573;-70
2022/12/22 06:51:49;;;;;;;;;3.67;2.33;;;;;13.10;78.34;100542.13;5057972;28;45328;-71
2022/12/22 06:54:15;;;;;;;;;6.00;2.33;;;;;12.85;78.09;100503.91;5039672;28;47503;-72
2022/12/22 06:56:40;;;;;;;;;3.00;2.00;;;;;13.13;78.37;100570.31;5057786;28;45364;-70
2022/12/22 06:59:05;;;;;;;;;5.67;2.67;;;;;12.71;77.94;100489.38;5057785;28;45487;-71
2022/12/22 07:01:31;;;;;;;;;5.67;4.00;;;;;13.12;77.88;100576.66;5057773;28;45313;-72
2022/12/22 07:03:56;;;;;;;;;2.67;1.33;;;;;12.67;77.66;100487.22;5057422;28;46387;-71
2022/12/22 07:06:22;;;;;;;;;4.67;3.67;;;;;13.19;78.34;100572.34;5057428;28;49680;-71
2022/12/22 07:08:48;;;;;;;;;3.67;2.33;;;;;13.12;77.67;100557.97;5057750;28;45279;-71
2022/12/22 07:11:14;;;;;;;;;8.00;3.33;;;;;13.18;77.75;100574.19;5039338;28;45253;-72
2022/12/22 07:13:39;;;;;;;;;10.67;4.00;;;;;12.82;77.72;100506.91;5056581;28;46049;-70
2022/12/22 07:16:07;;;;;;;;;5.33;4.33;;;;;13.21;77.38;100578.38;5057332;28;45396;-72
2022/12/22 07:18:35;;;;;;;;;8.33;5.00;;;;;13.22;78.02;100590.75;5039564;28;45193;-71
2022/12/22 07:21:03;;;;;;;;;9.67;7.00;;;;;13.19;78.36;100593.72;5058336;28;45277;-71
2022/12/22 07:23:29;;;;;;;;;10.00;6.33;;;;;13.09;78.83;100596.50;5057071;28;46516;-72
2022/12/22 07:25:54;;;;;;;;;10.67;7.00;;;;;12.94;78.79;100574.13;5057160;28;45526;-72
2022/12/22 07:28:20;;;;;;;;;5.00;4.00;;;;;12.97;78.65;100590.63;5057283;28;45538;-71
2022/12/22 07:30:45;;;;;;;;;4.67;3.33;;;;;12.96;78.45;100588.97;5039163;28;45577;-71
2022/12/22 07:33:10;;;;;;;;;12.00;4.67;;;;;12.88;78.52;100580.97;5056323;28;45595;-71
2022/12/22 07:35:36;;;;;;;;;6.00;5.33;;;;;12.55;78.42;100532.00;5056732;28;45254;-72
2022/12/22 07:38:01;;;;;;;;;8.00;7.33;;;;;12.01;78.17;100448.00;5056486;28;45578;-71
2022/12/22 07:40:27;;;;;;;;;9.33;5.33;;;;;11.42;77.78;100372.50;5056972;28;45346;-71
2022/12/22 07:42:56;;;;;;;;;13.33;8.33;;;;;12.64;78.05;100572.88;5056658;28;46307;-73
2022/12/22 07:45:22;;;;;;;;;14.67;9.67;;;;;12.48;78.21;100550.50;5056773;28;45446;-71
2022/12/22 07:47:48;;;;;;;;;11.33;9.33;;;;;12.85;78.29;100615.97;5056577;28;45345;-72
2022/12/22 07:50:26;;;;;;;;;13.00;7.67;;;;;12.87;78.31;100610.47;5057112;28;45265;-72
2022/12/22 07:53:00;;;;;;;;;12.67;7.67;;;;;12.89;77.78;100613.81;5056823;28;46192;-71
2022/12/22 07:55:28;;;;;;;;;15.33;12.00;;;;;12.90;77.82;100602.97;5038636;28;45431;-71
2022/12/22 07:57:54;;;;;;;;;14.67;10.00;;;;;12.04;77.41;100463.69;5038560;28;45356;-71
2022/12/22 08:00:20;;;;;;;;;11.00;7.00;;;;;12.84;77.60;100594.78;5056784;28;45491;-73
2022/12/22 08:02:56;;;;;;;;;11.00;9.33;;;;;12.69;77.17;100575.91;5038387;28;49310;-70
2022/12/22 08:05:23;;;;;;;;;18.33;8.67;;;;;13.03;76.87;100626.53;5056766;28;45431;-71
2022/12/22 08:07:49;;;;;;;;;10.33;6.33;;;;;13.06;76.65;100623.53;5056866;28;45191;-71
2022/12/22 08:10:16;;;;;;;;;10.33;8.33;;;;;12.94;76.82;100598.13;5057028;28;45558;-71
2022/12/22 08:12:41;;;;;;;;;15.33;8.67;;;;;13.03;76.54;100627.38;5056566;28;45292;-72
2022/12/22 08:15:08;;;;;;;;;19.00;12.00;;;;;12.83;76.58;100593.97;5056402;28;45498;-71
2022/12/22 08:17:35;;;;;;;;;12.00;8.33;;;;;12.76;76.81;100584.91;5055896;28;45506;-72
2022/12/22 08:20:00;;;;;;;;;19.33;11.67;;;;;12.95;76.44;100616.66;5056522;28;45391;-72
2022/12/22 08:22:26;;;;;;;;;11.67;8.33;;;;;13.04;76.54;100639.72;5056296;28;45700;-71
2022/12/22 08:24:52;;;;;;;;;14.00;8.67;;;;;12.99;75.92;100636.66;5056365;28;45423;-71
2022/12/22 08:27:25;;;;;;;;;15.67;11.33;;;;;13.10;76.07;100639.06;5056332;28;45555;-69
2022/12/22 08:29:55;;;;;;;;;16.00;10.00;;;;;13.15;75.70;100646.56;5056876;28;45960;-71
2022/12/22 08:32:21;;;;;;;;;15.67;11.33;;;;;12.88;75.39;100590.78;5055142;28;46533;-71
2022/12/22 08:34:49;;;;;;;;;12.33;11.00;;;;;12.93;75.41;100620.47;5038052;28;47112;-70
2022/12/22 08:37:16;;;;;;;;;20.00;13.67;;;;;13.10;75.46;100648.91;5038191;28;45367;-71
2022/12/22 08:39:45;;;;;;;;;11.67;8.67;;;;;12.96;75.46;100625.50;5056221;28;45431;-71
2022/12/22 08:42:14;;;;;;;;;13.00;9.00;;;;;13.02;75.12;100630.22;5055774;28;45281;-71
2022/12/22 08:44:40;;;;;;;;;11.67;10.00;;;;;12.36;75.15;100521.59;5056208;28;45423;-71
2022/12/22 08:47:05;;;;;;;;;17.67;15.33;;;;;13.00;75.20;100611.66;5055737;28;46388;-71
2022/12/22 08:49:31;;;;;;;;;15.00;8.67;;;;;12.91;75.37;100588.63;5055833;28;45507;-70
2022/12/22 08:51:57;;;;;;;;;15.67;13.67;;;;;13.09;75.13;100628.53;5039847;28;48421;-70
2022/12/22 08:54:22;;;;;;;;;18.00;11.33;;;;;13.16;75.17;100628.72;5058986;28;45341;-71
2022/12/22 08:56:48;;;;;;;;;20.67;12.67;;;;;12.80;74.80;100568.41;5059575;28;45498;-71
2022/12/22 08:59:14;;;;;;;;;13.67;8.33;;;;;13.18;74.71;100629.41;5041354;28;45671;-73
2022/12/22 09:01:42;;;;;;;;;19.00;12.33;;;;;13.02;74.50;100599.00;5059263;28;45442;-71
2022/12/22 09:04:08;;;;;;;;;16.00;10.33;;;;;13.09;74.44;100610.69;5058976;28;45585;-71
2022/12/22 09:06:34;;;;;;;;;17.00;10.67;;;;;13.25;75.02;100641.13;5058940;28;45423;-72
2022/12/22 09:09:01;;;;;;;;;21.00;14.67;;;;;13.28;74.72;100643.47;5059286;28;45299;-69
2022/12/22 09:11:30;;;;;;;;;14.00;10.67;;;;;13.21;74.64;100623.75;5072041;28;47613;-73
2022/12/22 09:13:58;;;;;;;;;13.67;10.00;;;;;11.02;74.16;100256.03;5093117;27;45350;-72
2022/12/22 09:16:27;;;;;;;;;12.00;10.00;;;;;13.31;74.14;100641.31;5107079;27;45493;-71
2022/12/22 09:18:53;;;;;;;;;16.00;12.33;;;;;12.30;74.36;100476.94;5100129;27;45433;-71
2022/12/22 09:21:18;;;;;;;;;15.00;10.33;;;;;13.01;73.97;100570.66;5099459;27;46438;-71
2022/12/22 09:23:44;;;;;;;;;15.67;11.00;;;;;13.12;73.88;100588.19;5099434;27;45577;-71
2022/12/22 09:26:12;;;;;;;;;14.67;10.33;;;;;13.37;73.61;100637.97;5099560;27;45259;-71
2022/12/22 09:28:38;;;;;;;;;20.00;13.67;;;;;12.74;73.89;100525.56;5100020;27;45551;-72
2022/12/22 09:31:04;;;;;;;;;16.67;11.00;;;;;13.15;73.77;100576.34;5099427;27;45608;-71
2022/12/22 09:33:30;;;;;;;;;17.67;12.00;;;;;13.50;73.60;100629.47;5099405;27;45469;-73
2022/12/22 09:35:56;;;;;;;;;15.67;13.00;;;;;13.65;73.34;100643.84;5115301;27;45510;-72
2022/12/22 09:38:26;;;;;;;;;11.67;9.33;;;;;13.70;73.46;100640.69;5100088;27;45403;-70
2022/12/22 09:40:52;;;;;;;;;16.00;10.33;;;;;13.75;73.23;100653.53;5114969;27;48789;-72
2022/12/22 09:43:24;;;;;;;;;16.33;11.00;;;;;13.76;73.23;100645.34;5096025;27;46370;-72
2022/12/22 09:45:49;;;;;;;;;29.67;18.00;;;;;13.51;73.22;100606.28;5099169;27;45321;-73
2022/12/22 09:48:15;;;;;;;;;16.33;12.33;;;;;13.74;73.16;100657.22;5099491;27;45247;-72
2022/12/22 09:50:41;;;;;;;;;20.33;15.33;;;;;13.82;73.13;100662.56;5099281;27;45557;-72
2022/12/22 09:53:15;;;;;;;;;14.33;13.33;;;;;13.91;72.87;100680.25;5098990;27;45437;-72
2022/12/22 09:55:43;;;;;;;;;14.33;11.00;;;;;12.98;72.34;100528.25;5098885;27;45439;-72
2022/12/22 09:58:18;;;;;;;;;15.33;11.33;;;;;13.86;73.05;100661.22;5099554;27;45399;-71
2022/12/22 10:00:51;;;;;;;;;17.33;13.33;;;;;13.84;72.89;100674.75;5098945;27;46175;-72
2022/12/22 10:03:31;;;;;;;;;16.00;11.33;;;;;13.89;72.85;100669.75;5098989;27;45536;-74
2022/12/22 10:06:07;;;;;;;;;16.00;12.00;;;;;13.83;73.08;100672.25;5099620;27;45246;-71
2022/12/22 10:08:36;;;;;;;;;15.67;12.67;;;;;12.87;72.94;100507.25;5099072;27;45300;-73
2022/12/22 10:11:01;;;;;;;;;20.00;13.00;;;;;13.89;72.70;100660.88;5098561;27;45773;-72
2022/12/22 10:13:27;;;;;;;;;21.00;14.00;;;;;13.67;72.93;100625.81;5092879;27;45352;-72
2022/12/22 10:15:53;;;;;;;;;15.33;11.00;;;;;13.79;72.67;100622.78;5078129;28;45442;-74
2022/12/22 10:18:22;;;;;;;;;18.67;11.00;;;;;13.28;72.75;100539.34;5078690;28;45514;-73
2022/12/22 10:21:10;;;;;;;;;17.33;14.67;;;;;13.89;72.33;100652.88;5067706;28;46059;-74
2022/12/22 10:23:40;;;;;;;;;16.67;13.33;;;;;13.13;73.19;100519.63;5058578;28;45478;-74
2022/12/22 10:26:08;;;;;;;;;9.33;8.33;;;;;13.92;72.48;100661.38;5076200;28;45612;-74
2022/12/22 10:28:42;;;;;;;;;20.67;17.00;;;;;13.70;72.36;100604.09;5078276;28;45532;-72
2022/12/22 10:31:11;;;;;;;;;23.67;16.33;;;;;14.07;72.18;100660.72;5078105;28;46799;-71
2022/12/22 10:33:38;;;;;;;;;18.67;13.67;;;;;13.89;71.84;100629.66;5074403;28;45262;-72
2022/12/22 10:36:05;;;;;;;;;16.00;11.00;;;;;13.66;71.71;100586.75;5057577;28;45565;-72
2022/12/22 10:38:36;;;;;;;;;16.33;12.33;;;;;13.82;71.29;100606.44;5057733;28;45507;-72
2022/12/22 10:41:07;;;;;;;;;17.00;10.33;;;;;14.16;71.40;100646.31;5057493;28;46609;-73
2022/12/22 10:43:38;;;;;;;;;22.00;11.33;;;;;13.77;71.47;100584.72;5057621;28;45324;-70
2022/12/22 10:46:04;;;;;;;;;14.00;10.00;;;;;13.47;71.32;100530.16;5058320;28;45456;-70
2022/12/22 10:48:38;;;;;;;;;20.00;13.33;;;;;14.24;71.38;100655.19;5059449;28;46000;-73
2022/12/22 10:51:08;;;;;;;;;15.33;10.67;;;;;13.53;71.24;100527.66;5077604;28;45836;-72
2022/12/22 10:53:54;;;;;;;;;11.33;10.00;;;;;14.27;71.25;100638.78;5077516;28;45455;-72
2022/12/22 10:56:26;;;;;;;;;14.67;11.67;;;;;14.16;71.02;100625.75;5077639;28;45497;-71
2022/12/22 10:59:18;;;;;;;;;15.67;15.67;;;;;14.32;70.94;100640.94;5059481;28;45406;-73
2022/12/22 11:01:44;;;;;;;;;15.00;11.00;;;;;14.29;70.54;100631.44;5052337;28;46054;-71
2022/12/22 11:04:26;;;;;;;;;15.67;9.67;;;;;14.40;70.92;100653.44;5077479;28;45396;-72
2022/12/22 11:06:53;;;;;;;;;7.67;6.33;;;;;14.15;70.70;100618.75;5077612;28;45360;-72
2022/12/22 11:09:20;;;;;;;;;13.00;11.33;;;;;14.41;70.93;100644.41;5058999;28;45392;-71
2022/12/22 11:11:52;;;;;;;;;18.67;12.00;;;;;14.41;70.90;100644.41;5058769;28;47853;-73
2022/12/22 11:14:26;;;;;;;;;12.00;9.33;;;;;12.61;70.18;100330.50;5077908;27;45612;-72
2022/12/22 11:17:15;;;;;;;;;19.33;14.67;;;;;14.47;70.03;100636.59;5095717;27;45530;-74
2022/12/22 11:20:14;;;;;;;;;20.33;15.00;;;;;14.35;70.15;100611.19;5095999;27;45499;-72
2022/12/22 11:22:51;;;;;;;;;20.00;11.33;;;;;14.40;70.31;100624.03;5096414;27;48232;-72
2022/12/22 11:25:23;;;;;;;;;17.33;9.67;;;;;14.38;70.44;100628.72;5093064;27;45512;-73
2022/12/22 11:28:00;;;;;;;;;22.33;12.00;;;;;14.40;70.48;100622.19;5116939;27;45244;-71
2022/12/22 11:31:01;;;;;;;;;16.33;13.00;;;;;14.35;70.21;100629.91;5117361;27;45572;-73
2022/12/22 11:33:46;;;;;;;;;13.33;9.00;;;;;13.89;70.54;100549.47;5113076;27;45579;-72
2022/12/22 11:36:26;;;;;;;;;17.33;13.33;;;;;14.37;70.56;100643.09;5118054;27;45984;-72
2022/12/22 11:39:19;;;;;;;;;11.33;8.00;;;;;13.83;70.47;100544.81;5118153;27;45353;-73
2022/12/22 11:42:27;;;;;;;;;17.67;13.67;;;;;14.29;70.58;100628.75;5111027;27;45513;-72
2022/12/22 11:45:14;;;;;;;;;15.67;10.33;;;;;14.24;70.61;100622.25;5086859;27;48094;-72
2022/12/22 11:47:49;;;;;;;;;18.00;11.00;;;;;14.30;70.54;100617.06;5116630;27;45694;-72
2022/12/22 11:50:41;;;;;;;;;16.00;8.67;;;;;14.33;71.10;100621.22;5118459;27;45426;-73
2022/12/22 11:53:35;;;;;;;;;16.67;11.33;;;;;13.61;70.74;100498.25;5117159;27;45618;-75
2022/12/22 11:56:16;;;;;;;;;14.33;11.00;;;;;14.39;71.04;100619.69;5118910;27;46236;-72
2022/12/22 11:59:11;;;;;;;;;13.33;11.33;;;;;14.39;70.74;100604.47;5118795;27;45668;-74
2022/12/22 12:01:51;;;;;;;;;17.00;11.67;;;;;14.40;70.78;100595.44;5091429;27;45492;-71
2022/12/22 12:04:19;;;;;;;;;18.00;11.33;;;;;14.43;70.58;100605.00;5118825;27;45317;-72
2022/12/22 12:06:50;;;;;;;;;13.33;13.33;;;;;14.46;70.38;100599.31;5117963;27;46996;-73
2022/12/22 12:09:43;;;;;;;;;16.33;9.67;;;;;14.44;70.39;100594.16;5117473;27;45172;-73
2022/12/22 12:12:21;;;;;;;;;22.00;11.00;;;;;14.35;70.53;100588.94;5117971;27;45305;-72
2022/12/22 12:15:10;;;;;;;;;16.33;13.33;;;;;14.43;70.65;100589.81;5118211;27;45420;-71
2022/12/22 12:18:01;;;;;;;;;26.33;14.67;;;;;14.24;70.31;100558.91;5117122;27;47502;-70
2022/12/22 12:20:35;;;;;;;;;18.33;14.00;;;;;14.41;70.28;100580.22;5092399;27;45525;-72
2022/12/22 12:23:20;;;;;;;;;15.33;13.67;;;;;14.10;70.59;100519.50;5117835;27;45189;-73
2022/12/22 12:25:55;;;;;;;;;16.00;13.33;;;;;13.91;70.38;100495.84;5120207;27;45215;-74
2022/12/22 12:28:48;;;;;;;;;14.00;12.33;;;;;14.49;70.26;100570.38;5119534;27;47535;-71
2022/12/22 12:31:17;;;;;;;;;14.00;10.33;;;;;14.44;70.21;100558.53;5121310;27;45443;-71
2022/12/22 12:33:46;;;;;;;;;14.33;9.00;;;;;14.34;70.55;100563.22;5121506;27;45319;-71
2022/12/22 12:36:27;;;;;;;;;15.00;9.67;;;;;14.37;70.48;100558.34;5122048;27;45407;-72
2022/12/22 12:39:19;;;;;;;;;15.00;9.00;;;;;14.37;70.61;100552.16;5120021;27;47535;-73
2022/12/22 12:42:22;;;;;;;;;16.33;10.33;;;;;14.32;70.77;100550.84;5121089;27;45483;-72
2022/12/22 12:44:51;;;;;;;;;17.67;13.00;;;;;14.20;71.01;100530.81;5121366;27;45348;-72
2022/12/22 12:47:21;;;;;;;;;13.67;12.00;;;;;14.28;70.90;100543.34;5121190;27;45497;-72
2022/12/22 12:50:12;;;;;;;;;15.67;8.67;;;;;14.28;70.92;100538.84;5098843;27;46624;-71
2022/12/22 12:52:38;;;;;;;;;14.33;8.67;;;;;14.28;71.30;100536.16;5120650;27;45471;-74
2022/12/22 12:55:23;;;;;;;;;22.00;14.33;;;;;14.21;71.36;100529.81;5119539;27;45403;-72
2022/12/22 12:57:50;;;;;;;;;17.33;13.00;;;;;14.20;71.62;100525.47;5120590;27;45468;-72
2022/12/22 13:00:31;;;;;;;;;16.00;11.67;;;;;14.24;72.01;100515.31;5120287;27;46524;-72
2022/12/22 13:03:01;;;;;;;;;14.67;8.67;;;;;14.04;72.74;100493.47;5120587;27;45238;-72
2022/12/22 13:05:32;;;;;;;;;15.67;9.67;;;;;14.15;72.70;100517.16;5120871;27;45295;-71
2022/12/22 13:08:05;;;;;;;;;12.67;10.33;;;;;14.09;73.43;100512.50;5121192;27;45345;-73
2022/12/22 13:10:31;;;;;;;;;10.33;8.33;;;;;13.93;73.50;100480.47;5120571;27;46228;-71
2022/12/22 13:12:57;;;;;;;;;13.67;10.67;;;;;13.38;74.50;100388.63;5120089;27;45231;-72
2022/12/22 13:15:31;;;;;;;;;17.67;11.00;;;;;14.00;74.77;100492.13;5120651;27;45296;-72
2022/12/22 13:17:58;;;;;;;;;13.00;8.33;;;;;13.89;74.67;100469.31;5120435;27;45477;-72
2022/12/22 13:20:31;;;;;;;;;9.33;8.33;;;;;13.99;75.10;100503.84;5119045;27;47867;-71
2022/12/22 13:22:59;;;;;;;;;14.00;11.33;;;;;13.74;75.60;100454.16;5120370;27;45353;-74
2022/12/22 13:25:51;;;;;;;;;7.00;7.00;;;;;13.65;76.08;100446.16;5136610;27;45350;-71
2022/12/22 13:28:20;;;;;;;;;17.33;8.00;;;;;13.87;75.87;100481.19;5120610;27;45318;-73
2022/12/22 13:31:15;;;;;;;;;20.33;11.33;;;;;13.77;76.45;100457.31;5120167;27;46714;-74
2022/12/22 13:33:41;;;;;;;;;20.33;12.67;;;;;13.75;76.58;100493.22;5119972;27;45357;-73
2022/12/22 13:36:18;;;;;;;;;12.33;9.00;;;;;13.75;76.75;100472.69;5119458;27;45366;-72
2022/12/22 13:38:44;;;;;;;;;18.00;13.00;;;;;13.73;76.89;100468.50;5120394;27;45463;-73
2022/12/22 13:41:16;;;;;;;;;15.33;10.00;;;;;12.86;77.73;100332.16;5100687;27;45544;-71
2022/12/22 13:43:45;;;;;;;;;15.00;12.67;;;;;13.64;77.63;100454.34;5098148;27;46429;-71
2022/12/22 13:46:11;;;;;;;;;17.33;10.67;;;;;13.67;77.95;100454.84;5099515;27;45245;-71
2022/12/22 13:48:43;;;;;;;;;10.33;9.00;;;;;13.60;77.97;100437.81;5098229;27;45620;-72
2022/12/22 13:51:17;;;;;;;;;13.00;8.33;;;;;13.36;78.24;100420.00;5098710;27;47423;-72
2022/12/22 13:53:47;;;;;;;;;15.33;10.33;;;;;13.57;78.66;100443.50;5099585;27;45603;-73
2022/12/22 13:56:18;;;;;;;;;19.00;12.67;;;;;13.56;78.46;100441.84;5099384;27;45480;-72
2022/12/22 13:58:46;;;;;;;;;13.00;11.00;;;;;13.49;79.03;100434.69;5099012;27;45298;-72
2022/12/22 14:01:16;;;;;;;;;14.00;9.67;;;;;13.55;78.84;100440.16;5099014;27;46623;-72
2022/12/22 14:04:06;;;;;;;;;11.33;9.67;;;;;12.62;79.08;100294.84;5099205;27;45590;-72
2022/12/22 14:06:37;;;;;;;;;17.67;12.33;;;;;13.52;79.17;100435.16;5099147;27;45343;-72
2022/12/22 14:09:22;;;;;;;;;14.33;10.67;;;;;13.48;79.82;100425.84;5098951;27;45532;-71
2022/12/22 14:12:07;;;;;;;;;16.00;9.67;;;;;13.46;80.11;100425.19;5099000;27;46684;-72
2022/12/22 14:14:39;;;;;;;;;14.00;9.33;;;;;13.49;79.73;100419.50;5096494;27;45387;-73
2022/12/22 14:17:20;;;;;;;;;10.67;9.67;;;;;12.55;79.89;100272.50;5098938;27;45529;-72
2022/12/22 14:19:50;;;;;;;;;12.33;9.00;;;;;13.44;80.44;100416.50;5099175;27;45326;-74
2022/12/22 14:22:33;;;;;;;;;19.33;15.67;;;;;12.87;80.83;100333.84;5098795;27;45484;-72
2022/12/22 14:25:25;;;;;;;;;12.00;10.00;;;;;13.30;80.96;100395.84;5098138;27;45587;-72
2022/12/22 14:27:55;;;;;;;;;14.33;12.00;;;;;13.40;80.70;100423.16;5091627;27;45217;-72
2022/12/22 14:30:37;;;;;;;;;24.33;13.33;;;;;13.25;81.06;100390.19;5098924;27;45344;-70
2022/12/22 14:33:35;;;;;;;;;11.33;10.33;;;;;13.20;81.22;100381.81;5098177;27;45755;-72
2022/12/22 14:36:26;;;;;;;;;11.33;10.00;;;;;13.36;81.52;100408.50;5098720;27;45334;-73
2022/12/22 14:38:55;;;;;;;;;16.33;11.00;;;;;13.36;81.60;100403.16;5098395;27;45302;-72
2022/12/22 14:41:41;;;;;;;;;13.00;8.67;;;;;13.32;82.08;100405.34;5098966;27;45477;-72
2022/12/22 14:44:19;;;;;;;;;19.33;12.67;;;;;12.81;82.08;100313.13;5097976;27;45546;-74
2022/12/22 14:47:16;;;;;;;;;12.67;8.00;;;;;13.01;82.18;100333.16;5098225;27;45461;-72
2022/12/22 14:49:55;;;;;;;;;10.33;7.67;;;;;13.34;81.96;100373.97;5098399;27;45198;-73
2022/12/22 14:52:31;;;;;;;;;12.67;11.00;;;;;13.07;82.04;100313.78;5097176;27;45502;-72
2022/12/22 14:54:58;;;;;;;;;14.33;10.33;;;;;13.34;82.00;100343.75;5097990;27;46507;-74
2022/12/22 14:57:31;;;;;;;;;10.33;8.67;;;;;13.39;82.09;100354.75;5113598;27;45373;-72
2022/12/22 15:00:08;;;;;;;;;12.67;10.00;;;;;13.33;82.18;100340.25;5096311;27;45447;-72
2022/12/22 15:02:47;;;;;;;;;19.67;11.67;;;;;12.83;82.60;100252.47;5098267;27;45560;-71
2022/12/22 15:05:37;;;;;;;;;11.67;8.67;;;;;13.08;82.52;100288.75;5089798;27;45936;-72
2022/12/22 15:08:38;;;;;;;;;9.00;8.00;;;;;12.81;82.49;100241.13;5114058;27;45594;-71
2022/12/22 15:11:14;;;;;;;;;11.00;10.00;;;;;13.06;83.01;100280.09;5098129;27;45514;-73